Flight Number: AVA4156 Duration: 1:45
Departure: Brunei Intl (WBSB) at 16:15 Distance: 605.872 Nm
Arrival: Ho Chi Minh City (VVTS) at 18:00 Equipment: A321

Weather Information
Brunei Airport, Brunei (WBSB) 04-56N 114-56E 15M Mar 02, 2021 - 12:00 AM EST / 2021.03.02 0500 UTC
Wind: from the N (350 degrees) at 9 MPH (8 KT):0
Visibility: greater than 7 mile(s):0
Sky conditions: mostly cloudy Weather: Cumulonimbus clouds observed Temperature: 87 F (31 C) Heat index: 95.7 F (35.4 C):1 Dew Point: 75 F (24 C) Relative Humidity: 66% Pressure (altimeter): 29.88 in. Hg (1012 hPa)
ob: WBSB 020500Z 35008KT 9999 FEW016 FEW017CB BKN300 31/24 Q1012 NOSIG cycle: 5
Sunrise: 22:33 Sunset: 10:31 (UTC)

Ho Chi Minh, Vietnam (VVTS) 10-49N 106-40E 19M Mar 02, 2021 - 12:00 AM EST / 2021.03.02 0500 UTC
Wind: from the SSE (150 degrees) at 6 MPH (5 KT) (direction variable):0
Visibility: greater than 7 mile(s):0
Sky conditions: mostly clear Temperature: 91 F (33 C) Heat index: 96.1 F (35.6 C):1 Dew Point: 69 F (21 C) Relative Humidity: 49% Pressure (altimeter): 29.88 in. Hg (1012 hPa)
ob: VVTS 020500Z 15005KT 080V230 9999 FEW017 33/21 Q1012 NOSIG cycle: 5
Sunrise: 23:09 Sunset: 11:01 (UTC)

TAF:2021/03/01 18:39 TAF VVTS 011700Z 0118/0224 14007KT 9999 SCT017 SCT040

Previous Pireps for this route
Date Aircraft Flight time Fuel used Landing rate On time
2018-01-02A3211.528619-269Yes
2019-12-06A32101.4612310-191Charter
(pireps marked green are flown by you)

Route map